Time;durP1;ratioP1;P1;durP2;ratioP2;P2;SDS_P1;SDS_P2;PMS_P1;PMS_P2;Temp;Humidity;BMP_temperature;BMP_pressure;BME280_temperature;BME280_humidity;BME280_pressure;Samples;Min_cycle;Max_cycle;Signal;HPM_P1;HPM_P2
2022/04/25 00:01:26;;;;;;;46.20;38.90;;;8.20;99.90;;;6.93;100.00;96809.75;5028619;28;20544;-84
2022/04/25 00:03:53;;;;;;;53.40;40.93;;;8.20;99.90;;;6.84;100.00;96813.78;5018945;28;20507;-84
2022/04/25 00:06:20;;;;;;;53.93;45.00;;;8.20;99.90;;;6.73;100.00;96809.94;5016743;28;20498;-82
2022/04/25 00:08:47;;;;;;;53.37;42.27;;;8.20;99.90;;;6.89;100.00;96824.69;5022653;28;20487;-84
2022/04/25 00:11:14;;;;;;;52.97;41.90;;;8.20;99.90;;;6.93;100.00;96820.50;5019636;28;20492;-83
2022/04/25 00:13:41;;;;;;;56.23;42.57;;;8.20;99.90;;;6.87;100.00;96815.19;5017764;28;20483;-81
2022/04/25 00:16:09;;;;;;;49.40;41.73;;;8.20;99.90;;;6.83;100.00;96816.69;5017369;28;20563;-83
2022/04/25 00:18:36;;;;;;;47.00;38.63;;;8.10;99.90;;;6.85;100.00;96818.13;5035450;28;20953;-84
2022/04/25 00:21:03;;;;;;;43.30;36.97;;;8.20;99.90;;;6.73;100.00;96809.13;5022974;28;20897;-81
2022/04/25 00:23:30;;;;;;;43.70;36.43;;;8.10;99.90;;;6.82;100.00;96823.09;5016973;28;20480;-81
2022/04/25 00:25:58;;;;;;;43.00;35.17;;;8.10;99.90;;;6.97;100.00;96828.94;5018061;28;20578;-81
2022/04/25 00:28:25;;;;;;;41.07;34.77;;;8.20;99.90;;;6.76;100.00;96830.16;5025767;28;20533;-81
2022/04/25 00:30:52;;;;;;;41.10;36.60;;;8.10;99.90;;;6.77;100.00;96829.97;5018115;28;20968;-81
2022/04/25 00:33:22;;;;;;;47.07;39.70;;;8.00;99.90;;;6.69;100.00;96835.59;5036956;28;20502;-82
2022/04/25 00:35:49;;;;;;;49.23;39.63;;;8.00;99.90;;;6.68;100.00;96828.59;5023762;28;20567;-82
2022/04/25 00:38:18;;;;;;;44.90;35.70;;;8.00;99.90;;;6.31;100.00;96754.16;5039452;28;20482;-82
2022/04/25 00:40:45;;;;;;;42.33;35.97;;;8.00;99.90;;;6.82;100.00;96840.00;5024881;28;20939;-82
2022/04/25 00:43:12;;;;;;;36.53;30.83;;;8.10;99.90;;;6.72;100.00;96839.72;5025746;28;20564;-81
2022/04/25 00:45:39;;;;;;;38.87;33.40;;;8.00;99.90;;;6.59;100.00;96819.16;5019772;28;20529;-82
2022/04/25 00:48:06;;;;;;;37.13;32.00;;;8.00;99.90;;;6.41;100.00;96810.00;5022780;28;20480;-80
2022/04/25 00:50:39;;;;;;;41.27;35.20;;;7.90;99.90;;;6.48;100.00;96837.63;5023178;28;20997;-81
2022/04/25 00:53:06;;;;;;;38.63;32.37;;;7.80;99.90;;;6.48;100.00;96845.66;5028609;28;20440;-80
2022/04/25 00:55:33;;;;;;;39.43;33.43;;;7.80;99.90;;;6.53;100.00;96839.66;5024274;28;20548;-82
2022/04/25 00:58:00;;;;;;;37.00;32.60;;;7.90;99.90;;;6.57;100.00;96837.34;5040398;28;20515;-84
2022/04/25 01:00:28;;;;;;;36.17;31.33;;;7.80;99.90;;;6.57;100.00;96842.72;5022966;28;20469;-83
2022/04/25 01:02:55;;;;;;;31.97;28.10;;;7.90;99.90;;;6.43;100.00;96833.94;5028347;28;20808;-84
2022/04/25 01:05:22;;;;;;;32.90;27.07;;;7.80;99.90;;;6.34;100.00;96834.19;5024573;28;20554;-86
2022/04/25 01:07:50;;;;;;;34.60;29.87;;;7.70;99.90;;;6.24;100.00;96818.59;5028276;28;20498;-85
2022/04/25 01:10:17;;;;;;;36.60;29.80;;;7.70;99.90;;;6.44;100.00;96841.75;5018449;28;20460;-84
2022/04/25 01:12:44;;;;;;;40.00;30.77;;;7.70;99.90;;;6.42;99.49;96827.75;5028906;28;20457;-82
2022/04/25 01:15:13;;;;;;;34.57;28.67;;;7.80;99.90;;;6.54;98.77;96843.16;5027700;28;20551;-83
2022/04/25 01:17:41;;;;;;;33.30;26.77;;;7.80;99.90;;;6.41;99.44;96833.34;5029285;28;20564;-83
2022/04/25 01:20:10;;;;;;;32.43;27.50;;;7.70;99.90;;;6.27;98.96;96808.47;5022714;28;20548;-82
2022/04/25 01:22:47;;;;;;;32.13;27.57;;;7.70;99.90;;;6.31;99.34;96833.84;5037178;28;20847;-84
2022/04/25 01:28:02;;;;;;;26.93;23.60;;;7.70;99.90;;;6.19;99.12;96825.63;5033285;28;20502;-83
2022/04/25 01:30:32;;;;;;;24.80;22.07;;;7.70;99.90;;;6.39;99.24;96846.97;5027987;28;20467;-84
2022/04/25 01:32:59;;;;;;;25.20;22.50;;;7.70;99.90;;;6.42;99.30;96848.41;5025134;28;20533;-86
2022/04/25 01:35:26;;;;;;;21.80;19.70;;;7.70;99.90;;;6.39;98.49;96857.69;5022378;28;20545;-86
2022/04/25 01:37:53;;;;;;;21.13;18.90;;;7.70;99.90;;;5.78;97.89;96776.78;5019398;28;20525;-85
2022/04/25 01:40:24;;;;;;;21.17;19.03;;;7.60;99.90;;;6.30;97.07;96867.06;5019789;28;20461;-85
2022/04/25 01:42:51;;;;;;;23.33;20.47;;;7.60;99.90;;;6.34;97.65;96865.59;5024366;28;20576;-83
2022/04/25 01:45:18;;;;;;;20.20;18.03;;;7.60;99.90;;;6.22;97.92;96866.28;5016123;28;20508;-83
2022/04/25 01:47:46;;;;;;;20.57;18.57;;;7.60;99.90;;;6.15;98.29;96857.44;5035109;28;20852;-80
2022/04/25 01:50:13;;;;;;;20.37;18.37;;;7.50;99.90;;;6.09;98.28;96858.28;5022443;28;20444;-80
2022/04/25 01:52:40;;;;;;;19.90;17.90;;;7.50;99.90;;;6.15;98.18;96870.03;5020355;28;20978;-81
2022/04/25 01:55:08;;;;;;;20.33;17.30;;;7.40;99.90;;;6.04;98.47;96864.31;5009497;28;20449;-82
2022/04/25 01:57:36;;;;;;;19.13;17.17;;;7.50;99.90;;;5.90;97.71;96846.59;5023533;28;20513;-82
2022/04/25 02:00:04;;;;;;;19.00;17.10;;;7.40;99.90;;;6.13;97.57;96875.59;5014690;28;20533;-82
2022/04/25 02:02:31;;;;;;;20.10;18.10;;;7.50;99.90;;;5.53;96.97;96785.56;5035394;28;20465;-81
2022/04/25 02:04:59;;;;;;;19.10;17.13;;;7.40;99.90;;;6.11;97.45;96861.59;5022545;28;20472;-82
2022/04/25 02:07:26;;;;;;;19.83;17.93;;;7.40;99.90;;;5.72;97.66;96810.63;5022256;28;20460;-84
2022/04/25 02:09:53;;;;;;;18.77;16.87;;;7.50;99.90;;;5.65;97.39;96807.97;5017549;28;20467;-83
2022/04/25 02:12:22;;;;;;;18.43;16.60;;;7.40;99.90;;;6.13;97.50;96883.63;5022276;28;20568;-82
2022/04/25 02:14:50;;;;;;;19.43;17.53;;;7.40;99.90;;;6.22;97.12;96881.56;5025991;28;20493;-82
2022/04/25 02:17:18;;;;;;;17.67;15.93;;;7.50;99.90;;;5.92;96.81;96861.44;5025584;28;20471;-83
2022/04/25 02:19:45;;;;;;;18.07;16.20;;;7.40;99.90;;;6.27;97.24;96888.94;5023948;28;20781;-82
2022/04/25 02:22:13;;;;;;;18.30;16.50;;;7.50;99.90;;;6.13;96.19;96891.69;5029336;28;20480;-83
2022/04/25 02:24:41;;;;;;;17.87;16.07;;;7.40;99.90;;;6.15;97.29;96889.63;5026704;28;20615;-83
2022/04/25 02:27:09;;;;;;;18.40;16.50;;;7.40;99.90;;;6.22;96.99;96885.03;5030335;28;20545;-83
2022/04/25 02:29:38;;;;;;;17.60;15.90;;;7.50;99.90;;;6.07;96.70;96893.38;5017786;28;20493;-82
2022/04/25 02:32:09;;;;;;;16.87;15.17;;;7.40;99.90;;;6.03;96.82;96880.63;5026937;28;21186;-82
2022/04/25 02:34:36;;;;;;;18.13;16.27;;;7.40;99.90;;;5.65;97.25;96832.09;5038036;28;20464;-82
2022/04/25 02:37:04;;;;;;;18.73;16.90;;;7.40;99.90;;;6.06;96.40;96897.09;5024185;28;20461;-82
2022/04/25 02:39:31;;;;;;;19.10;17.20;;;7.40;99.90;;;6.05;96.25;96894.63;5044760;28;20839;-83
2022/04/25 02:41:58;;;;;;;17.77;16.00;;;7.40;99.90;;;6.01;96.65;96898.75;5032454;28;20467;-83
2022/04/25 02:44:25;;;;;;;17.67;15.87;;;7.30;99.90;;;5.90;96.90;96895.69;5030260;28;20468;-83
2022/04/25 02:46:52;;;;;;;19.37;17.37;;;7.20;99.90;;;5.88;97.60;96899.63;5026609;28;21058;-83
2022/04/25 02:49:20;;;;;;;18.77;16.77;;;7.20;99.90;;;5.79;97.66;96897.19;5023730;28;20493;-82
2022/04/25 02:51:47;;;;;;;20.00;17.50;;;7.20;99.90;;;5.77;97.61;96901.94;5033334;28;21103;-81
2022/04/25 02:54:14;;;;;;;21.47;18.80;;;7.10;99.90;;;5.66;98.74;96900.72;5022740;28;20452;-82
2022/04/25 02:56:41;;;;;;;19.90;17.90;;;7.10;99.90;;;5.70;98.31;96909.16;5034354;28;21053;-83
2022/04/25 02:59:08;;;;;;;20.33;18.33;;;7.10;99.90;;;5.66;98.53;96897.25;5043795;28;20542;-81
2022/04/25 03:01:35;;;;;;;21.27;19.07;;;7.00;99.90;;;5.65;98.59;96917.84;5024827;28;21413;-82
2022/04/25 03:04:03;;;;;;;20.30;18.30;;;7.00;99.90;;;5.82;99.14;96906.66;5021047;28;21376;-82
2022/04/25 03:06:31;;;;;;;21.33;18.47;;;7.00;99.90;;;5.74;98.35;96915.75;5028413;28;20534;-82
2022/04/25 03:08:58;;;;;;;21.70;19.43;;;7.10;99.90;;;5.76;99.25;96907.50;5035266;28;20455;-81
2022/04/25 03:11:25;;;;;;;21.10;19.00;;;7.10;99.90;;;5.82;98.97;96920.88;5039958;28;20453;-82
2022/04/25 03:13:53;;;;;;;23.33;20.90;;;7.10;99.90;;;5.84;98.84;96915.31;5021385;28;20460;-81
2022/04/25 03:16:21;;;;;;;29.57;24.17;;;7.20;99.90;;;5.86;98.05;96923.13;5019756;28;20465;-82
2022/04/25 03:18:49;;;;;;;33.13;26.90;;;7.20;99.90;;;5.89;98.28;96926.22;5024192;28;20975;-81
2022/04/25 03:21:16;;;;;;;28.27;25.13;;;7.20;99.90;;;5.97;98.13;96925.16;5032030;28;20465;-83
2022/04/25 03:23:44;;;;;;;24.23;20.97;;;7.30;99.90;;;5.91;98.00;96936.72;5024543;28;20555;-81
2022/04/25 03:26:11;;;;;;;25.30;22.53;;;7.20;99.90;;;5.86;98.45;96929.34;5021544;28;20461;-82
2022/04/25 03:28:38;;;;;;;24.07;21.67;;;7.20;99.90;;;5.95;97.73;96932.59;5022244;28;20488;-81
2022/04/25 03:31:09;;;;;;;23.80;21.40;;;7.30;99.90;;;5.88;98.23;96935.31;5034301;28;20504;-82
2022/04/25 03:33:36;;;;;;;25.27;21.93;;;7.30;99.90;;;5.88;97.44;96929.94;5027352;28;20979;-83
2022/04/25 03:36:05;;;;;;;22.97;20.57;;;7.30;99.90;;;5.86;97.98;96936.53;5030034;28;20457;-83
2022/04/25 03:38:32;;;;;;;21.97;19.73;;;7.30;99.90;;;5.89;97.87;96938.78;5024278;28;20553;-82
2022/04/25 03:41:01;;;;;;;23.90;21.37;;;7.30;99.90;;;5.87;98.25;96932.81;5019186;28;21832;-82
2022/04/25 03:43:28;;;;;;;22.20;19.80;;;7.30;99.90;;;5.91;98.01;96945.59;5018576;28;20443;-82
2022/04/25 03:45:56;;;;;;;21.43;19.27;;;7.30;99.90;;;5.94;97.54;96937.13;5017666;28;20490;-83
2022/04/25 03:48:23;;;;;;;22.80;20.43;;;7.30;99.90;;;6.24;96.42;96951.91;5026452;28;20457;-85
2022/04/25 03:50:50;;;;;;;21.97;19.77;;;7.50;99.90;;;6.03;96.73;96944.97;5029503;28;20470;-83
2022/04/25 03:53:17;;;;;;;23.53;19.60;;;7.40;99.90;;;6.03;96.48;96958.38;5035531;28;20512;-82
2022/04/25 03:58:30;;;;;;;21.33;19.03;;;7.30;99.90;;;5.99;96.45;96939.19;5019314;28;20775;-84
2022/04/25 04:00:58;;;;;;;22.37;20.00;;;7.40;99.90;;;5.83;96.36;96910.97;5024194;28;20466;-84
2022/04/25 04:03:24;;;;;;;24.77;21.97;;;7.40;99.90;;;5.92;96.33;96955.28;5027460;28;20484;-84
2022/04/25 04:05:53;;;;;;;24.40;21.90;;;7.40;99.90;;;5.67;96.86;96915.75;5019087;28;20561;-85
2022/04/25 04:08:20;;;;;;;22.50;20.17;;;7.30;99.90;;;5.99;96.83;96975.88;5023259;28;20472;-84
2022/04/25 04:10:47;;;;;;;24.27;21.77;;;7.40;99.90;;;5.90;97.45;96965.41;5027937;28;20570;-87
2022/04/25 04:13:15;;;;;;;23.00;20.77;;;7.30;99.90;;;5.95;97.05;96964.78;5026943;28;20847;-84
2022/04/25 04:15:44;;;;;;;23.20;20.77;;;7.30;99.90;;;6.13;96.88;96980.19;5042061;28;20452;-83
2022/04/25 04:18:11;;;;;;;23.80;21.43;;;7.40;99.90;;;6.00;96.59;96974.88;5028020;28;20464;-83
2022/04/25 04:20:38;;;;;;;22.33;20.23;;;7.40;99.90;;;5.96;96.78;96955.69;5029071;28;21487;-84
2022/04/25 04:23:06;;;;;;;22.20;20.13;;;7.40;99.90;;;5.62;96.20;96912.09;5021291;28;20935;-83
2022/04/25 04:25:34;;;;;;;22.20;19.97;;;7.40;99.90;;;6.04;96.90;96984.97;5043002;28;20460;-82
2022/04/25 04:28:04;;;;;;;21.97;19.93;;;7.40;99.90;;;5.93;97.51;96972.22;5039644;28;20921;-83
2022/04/25 04:30:31;;;;;;;20.67;18.67;;;7.40;99.90;;;6.04;96.91;97000.25;5019012;28;20545;-82
2022/04/25 04:33:00;;;;;;;22.33;20.20;;;7.40;99.90;;;6.12;97.13;96993.84;5029393;28;20599;-83
2022/04/25 04:38:12;;;;;;;22.20;19.97;;;7.50;99.90;;;6.33;96.57;97015.00;5038402;28;21053;-84
2022/04/25 04:40:39;;;;;;;21.50;19.40;;;7.60;99.90;;;6.36;96.36;97013.75;5025215;28;20469;-84
2022/04/25 04:43:06;;;;;;;26.93;21.23;;;7.60;99.90;;;6.57;96.31;96995.69;5025511;28;20451;-82
2022/04/25 04:45:33;;;;;;;21.20;17.93;;;7.80;99.90;;;5.87;95.08;96925.63;5032953;28;20481;-80
2022/04/25 04:48:01;;;;;;;20.53;18.53;;;7.80;99.90;;;6.51;95.95;97026.88;5037007;28;20900;-79
2022/04/25 04:50:29;;;;;;;20.90;18.87;;;7.70;99.90;;;6.30;95.28;97026.16;5019920;28;20456;-81
2022/04/25 04:52:59;;;;;;;21.80;18.90;;;7.70;99.90;;;6.68;94.65;97026.41;5047553;28;20459;-74
2022/04/25 04:55:26;;;;;;;22.23;19.93;;;7.90;99.90;;;6.62;94.71;97036.13;5021535;28;20531;-75
2022/04/25 04:57:55;;;;;;;21.00;18.90;;;7.90;99.90;;;6.64;94.91;97036.75;5020667;28;20483;-79
2022/04/25 05:00:23;;;;;;;20.70;18.70;;;7.90;99.90;;;6.52;94.13;97034.72;5019321;28;20559;-74
2022/04/25 05:02:50;;;;;;;20.30;18.20;;;7.90;99.90;;;6.50;95.02;97046.69;5032678;28;20459;-79
2022/04/25 05:05:20;;;;;;;19.63;17.83;;;7.80;99.90;;;6.65;94.07;97027.66;5016487;28;20546;-79
2022/04/25 05:07:48;;;;;;;19.40;17.60;;;7.90;99.90;;;6.95;92.38;97045.88;5020138;28;20466;-78
2022/04/25 05:10:15;;;;;;;18.43;16.60;;;8.10;99.90;;;6.90;92.23;97046.50;5017789;28;20465;-79
2022/04/25 05:12:50;;;;;;;21.03;18.27;;;8.10;99.90;;;6.88;92.27;97042.38;5016802;28;21304;-78
2022/04/25 05:15:17;;;;;;;19.37;17.50;;;8.30;98.80;;;6.82;92.13;97046.75;5018168;28;20457;-70
2022/04/25 05:17:48;;;;;;;19.83;17.83;;;8.10;99.60;;;6.93;92.03;97050.63;5036720;28;20486;-71
2022/04/25 05:20:15;;;;;;;18.70;16.90;;;8.20;99.80;;;6.98;91.65;97061.53;5021729;28;20462;-70
2022/04/25 05:22:46;;;;;;;20.90;18.10;;;8.20;98.90;;;7.17;91.95;97067.00;5019118;28;20461;-72
2022/04/25 05:25:17;;;;;;;19.27;17.40;;;8.30;99.50;;;7.06;90.87;97072.03;5015360;28;20486;-71
2022/04/25 05:27:45;;;;;;;18.07;15.93;;;8.30;97.20;;;7.01;91.67;97066.47;5019140;28;20461;-70
2022/04/25 05:30:14;;;;;;;21.47;17.60;;;8.30;98.50;;;6.91;91.76;97077.69;5023753;28;20463;-72
2022/04/25 05:32:47;;;;;;;18.50;16.60;;;8.30;97.40;;;7.14;91.53;97076.34;5028344;28;20587;-72
2022/04/25 05:35:15;;;;;;;20.27;17.93;;;8.30;98.90;;;7.09;92.17;97085.03;5024230;28;20456;-70
2022/04/25 05:37:44;;;;;;;19.20;17.20;;;8.40;98.90;;;7.31;90.50;97083.88;5018587;28;20592;-71
2022/04/25 05:40:12;;;;;;;19.50;17.60;;;8.50;98.00;;;7.19;90.48;97089.09;5012862;28;20805;-70
2022/04/25 05:42:41;;;;;;;19.80;17.80;;;8.50;96.60;;;7.11;91.11;97090.19;5020104;28;20484;-72
2022/04/25 05:45:10;;;;;;;17.80;16.00;;;8.40;97.40;;;7.19;90.00;97087.25;5015493;28;20950;-71
2022/04/25 05:47:38;;;;;;;18.00;16.20;;;8.50;96.00;;;7.02;90.92;97081.56;5022808;28;20956;-71
2022/04/25 05:52:55;;;;;;;18.63;16.73;;;8.40;97.40;;;7.07;90.83;97094.34;5036340;28;20448;-74
2022/04/25 05:55:23;;;;;;;18.53;16.73;;;8.30;96.90;;;7.07;91.24;97099.72;5018359;28;20470;-77
2022/04/25 05:57:50;;;;;;;19.77;17.87;;;8.40;97.00;;;7.04;90.83;97108.22;5025031;28;20476;-76
2022/04/25 06:00:19;;;;;;;19.53;17.63;;;8.30;97.10;;;7.16;91.08;97121.78;5019533;28;20468;-78
2022/04/25 06:02:47;;;;;;;20.00;18.00;;;8.40;97.70;;;7.25;89.72;97107.06;5017176;28;20467;-75
2022/04/25 06:05:15;;;;;;;20.07;18.07;;;8.50;95.80;;;7.18;89.70;97119.69;5023544;28;20445;-72
2022/04/25 06:07:44;;;;;;;19.07;17.23;;;8.50;95.70;;;7.19;89.56;97118.66;5026025;28;20455;-76
2022/04/25 06:10:14;;;;;;;21.33;19.43;;;8.50;95.40;;;7.17;89.88;97124.25;5020532;28;20450;-75
2022/04/25 06:12:42;;;;;;;19.33;16.63;;;8.50;95.70;;;7.13;90.02;97120.38;5026355;28;20773;-72
2022/04/25 06:15:11;;;;;;;20.47;18.40;;;8.40;95.90;;;7.07;90.12;97122.03;5022743;28;20485;-72
2022/04/25 06:17:38;;;;;;;21.93;19.40;;;8.40;95.70;;;7.31;89.45;97138.41;5027325;28;20482;-76
2022/04/25 06:20:07;;;;;;;20.30;18.17;;;8.50;95.90;;;7.34;89.00;97142.56;5021046;28;20534;-73
2022/04/25 06:22:35;;;;;;;20.30;18.30;;;8.60;95.20;;;7.26;89.81;97138.25;5038732;28;20873;-76
2022/04/25 06:25:03;;;;;;;19.73;17.83;;;8.60;95.70;;;7.49;89.45;97143.06;5022142;28;20541;-76
2022/04/25 06:27:31;;;;;;;20.20;18.20;;;8.60;96.20;;;7.46;88.93;97146.19;5028444;28;21028;-74
2022/04/25 06:29:58;;;;;;;21.10;19.00;;;8.70;94.70;;;7.28;89.31;97149.59;5027750;28;20539;-75
2022/04/25 06:32:26;;;;;;;19.83;17.83;;;8.60;94.90;;;7.42;88.73;97141.47;5017022;28;20560;-74
2022/04/25 06:34:53;;;;;;;19.73;17.73;;;8.70;95.00;;;7.47;88.10;97160.44;5023838;28;20536;-75
2022/04/25 06:37:20;;;;;;;20.73;18.30;;;8.80;93.90;;;7.46;89.08;97151.56;5032258;28;20987;-74
2022/04/25 06:39:47;;;;;;;21.00;19.00;;;8.70;94.80;;;7.32;89.02;97145.44;5017077;28;20690;-80
2022/04/25 06:42:14;;;;;;;19.03;17.07;;;8.70;95.00;;;7.28;89.30;97148.78;5021021;28;20457;-82
2022/04/25 06:44:43;;;;;;;20.13;18.07;;;8.70;94.90;;;7.44;89.15;97161.72;5017645;28;20455;-78
2022/04/25 06:47:09;;;;;;;19.43;17.43;;;8.70;95.30;;;7.57;88.82;97166.19;5019212;28;20540;-78
2022/04/25 06:49:37;;;;;;;19.60;17.60;;;8.70;95.20;;;7.59;88.48;97164.09;5022456;28;20548;-75
2022/04/25 06:52:06;;;;;;;20.53;18.50;;;8.90;94.40;;;7.56;88.28;97167.22;5027488;28;20461;-74
2022/04/25 06:54:35;;;;;;;20.03;18.10;;;8.90;94.50;;;7.51;89.35;97181.31;5033255;28;20445;-72
2022/04/25 06:57:03;;;;;;;20.60;18.50;;;8.80;95.10;;;7.56;90.02;97180.66;5016269;28;20499;-72
2022/04/25 06:59:30;;;;;;;20.50;18.50;;;8.80;95.30;;;7.64;89.55;97169.63;5014555;28;20509;-71
2022/04/25 07:01:59;;;;;;;20.57;18.53;;;8.90;96.00;;;7.72;88.83;97168.53;5037036;28;20447;-74
2022/04/25 07:04:26;;;;;;;19.67;17.83;;;9.00;94.90;;;7.71;88.41;97177.66;5019330;28;20663;-74
2022/04/25 07:06:52;;;;;;;20.97;18.87;;;9.00;94.40;;;7.86;89.26;97177.34;5014457;28;20457;-74
2022/04/25 07:09:19;;;;;;;20.60;18.67;;;9.10;95.70;;;7.94;89.07;97179.75;5015396;28;20556;-73
2022/04/25 07:11:47;;;;;;;20.80;18.73;;;9.20;95.50;;;8.46;86.85;97181.41;5016520;28;20488;-74
2022/04/25 07:14:16;;;;;;;20.37;18.37;;;9.50;94.80;;;8.69;85.47;97174.53;5016215;28;20452;-73
2022/04/25 07:16:48;;;;;;;19.57;17.67;;;9.80;92.40;;;8.62;84.36;97176.50;5017686;28;20461;-72
2022/04/25 07:19:17;;;;;;;20.70;18.60;;;10.00;90.70;;;9.02;81.84;97186.00;5015533;28;20459;-73
2022/04/25 07:29:58;;;;;;;16.63;15.03;;;10.80;85.30;;;9.62;78.17;97187.88;5043714;28;20466;-72
2022/04/25 07:32:25;;;;;;;17.43;15.73;;;10.90;83.60;;;9.32;79.73;97179.81;5032002;28;20525;-73
2022/04/25 07:34:53;;;;;;;17.30;15.50;;;10.70;84.60;;;9.11;80.67;97200.81;5027047;28;20467;-74
2022/04/25 07:37:22;;;;;;;17.57;15.77;;;10.50;84.70;;;9.05;81.55;97194.47;5021640;28;20468;-74
2022/04/25 07:39:50;;;;;;;16.67;15.07;;;10.40;85.70;;;9.38;80.46;97200.47;5011859;28;20461;-75
2022/04/25 07:42:18;;;;;;;14.80;13.50;;;10.50;85.70;;;9.41;79.12;97207.28;5023141;28;20465;-72
2022/04/25 07:44:45;;;;;;;16.20;14.80;;;10.60;84.70;;;9.34;80.08;97207.38;5016669;28;20964;-72
2022/04/25 07:47:12;;;;;;;16.23;14.23;;;10.60;85.00;;;9.54;78.54;97207.09;5018175;28;20454;-72
2022/04/25 07:49:40;;;;;;;16.10;14.60;;;10.70;84.50;;;9.59;78.91;97204.53;5019973;28;20559;-72
2022/04/25 07:52:09;;;;;;;16.80;15.20;;;10.80;84.30;;;9.78;77.96;97213.41;5018960;28;20473;-71
2022/04/25 07:54:36;;;;;;;15.27;13.87;;;11.00;83.90;;;9.98;77.60;97216.88;5021438;28;20531;-74
2022/04/25 07:57:06;;;;;;;15.73;14.40;;;11.20;83.80;;;10.12;76.56;97215.59;5020889;28;20867;-72
2022/04/25 07:59:33;;;;;;;13.30;12.10;;;11.30;82.90;;;9.68;76.67;97217.72;5035070;28;20470;-72
2022/04/25 08:02:02;;;;;;;13.63;12.33;;;11.20;82.40;;;9.62;77.94;97224.84;5023532;28;20448;-73
2022/04/25 08:04:29;;;;;;;14.67;13.23;;;11.00;82.80;;;9.30;79.70;97223.16;5015442;28;20462;-75
2022/04/25 08:06:57;;;;;;;14.03;12.80;;;10.80;83.70;;;9.16;80.89;97237.84;5017354;28;20553;-73
2022/04/25 08:09:25;;;;;;;15.00;13.60;;;10.70;84.80;;;9.55;79.83;97241.13;5016709;28;20449;-74
2022/04/25 08:17:56;;;;;;;11.20;10.20;;;10.70;85.50;;;9.69;78.75;97238.25;5016579;28;20541;-75
2022/04/25 08:20:09;;;;;;;12.13;11.03;;;11.00;82.70;;;9.58;79.87;97259.53;5018733;28;20488;-74
2022/04/25 08:22:36;;;;;;;12.53;11.43;;;10.90;83.60;;;9.74;78.84;97255.38;5024323;28;20488;-72
2022/04/25 08:25:07;;;;;;;12.40;11.30;;;11.00;83.70;;;9.69;78.84;97249.03;5017683;28;20449;-75
2022/04/25 08:27:34;;;;;;;12.40;11.30;;;11.00;83.50;;;9.77;78.65;97264.88;5019770;28;20511;-72
2022/04/25 08:30:01;;;;;;;12.57;11.43;;;10.90;84.20;;;9.73;78.46;97261.00;5022337;28;20471;-72
2022/04/25 08:32:28;;;;;;;13.53;12.33;;;10.90;84.00;;;9.83;78.31;97266.69;5018952;28;20458;-72
2022/04/25 08:34:55;;;;;;;13.43;12.13;;;11.00;83.90;;;9.64;78.42;97272.13;5017820;28;20493;-74
2022/04/25 08:37:22;;;;;;;11.73;10.73;;;10.80;83.50;;;9.74;78.29;97268.88;5017978;28;20552;-74
2022/04/25 08:39:49;;;;;;;12.63;11.53;;;10.80;84.00;;;10.25;76.47;97267.75;5021657;28;20485;-75
2022/04/25 08:42:19;;;;;;;12.10;11.00;;;11.20;83.20;;;10.32;75.44;97271.16;5022200;28;20543;-75
2022/04/25 08:44:50;;;;;;;11.47;10.47;;;11.50;81.90;;;10.68;74.05;97274.72;5025230;28;20464;-72
2022/04/25 08:47:17;;;;;;;11.93;10.93;;;11.70;81.30;;;10.77;73.81;97278.72;5029213;28;20464;-75
2022/04/25 08:49:45;;;;;;;12.67;11.53;;;11.80;81.00;;;10.77;73.70;97284.13;5017049;28;20438;-76
2022/04/25 08:52:13;;;;;;;12.50;11.20;;;12.00;80.80;;;10.90;73.27;97282.25;5037153;28;20476;-72
2022/04/25 08:54:42;;;;;;;9.80;9.00;;;12.10;80.50;;;11.11;72.19;97285.41;5017516;28;20544;-74
2022/04/25 08:57:10;;;;;;;11.73;10.73;;;12.20;80.20;;;10.69;72.39;97287.22;5023182;28;20464;-74
2022/04/25 08:59:39;;;;;;;11.33;10.33;;;12.10;79.00;;;10.87;72.49;97293.56;5022703;28;20508;-74
2022/04/25 09:02:07;;;;;;;11.47;10.50;;;12.10;79.50;;;11.20;70.90;97275.88;5037195;28;20998;-76
2022/04/25 09:04:34;;;;;;;10.10;9.20;;;12.40;79.60;;;11.52;69.03;97291.69;5017998;28;20478;-72
2022/04/25 09:07:01;;;;;;;10.37;9.47;;;12.70;78.10;;;12.18;66.90;97258.03;5016500;28;20481;-77
2022/04/25 09:09:28;;;;;;;11.27;10.20;;;13.10;77.50;;;12.79;64.60;97283.66;5015669;28;20460;-76
2022/04/25 09:12:12;;;;;;;11.30;10.20;;;13.60;76.00;;;12.99;63.55;97281.25;5018184;28;20544;-72
2022/04/25 09:14:43;;;;;;;11.20;10.27;;;14.00;74.80;;;12.91;63.40;97286.28;5023953;28;20472;-75
2022/04/25 09:17:11;;;;;;;10.23;9.43;;;14.10;73.80;;;12.50;64.30;97292.69;5023187;28;20508;-74
2022/04/25 09:19:39;;;;;;;10.93;10.03;;;14.10;73.20;;;13.15;62.73;97292.31;5016447;28;20587;-74
2022/04/25 09:22:07;;;;;;;10.00;9.20;;;14.20;73.30;;;13.34;61.93;97300.16;5017022;28;20445;-74
2022/04/25 09:24:36;;;;;;;10.17;9.33;;;14.40;72.80;;;13.38;61.30;97302.13;5014038;28;20569;-75
2022/04/25 09:27:13;;;;;;;9.70;8.90;;;14.60;72.00;;;13.57;60.44;97302.69;5024890;28;20531;-73
2022/04/25 09:29:42;;;;;;;10.20;9.40;;;14.60;71.30;;;13.25;62.26;97291.63;5019965;28;21063;-76
2022/04/25 09:32:10;;;;;;;11.83;10.73;;;14.50;71.80;;;13.94;60.57;97303.09;5030597;28;20486;-74
2022/04/25 09:37:42;;;;;;;10.40;9.50;;;15.00;71.00;;;13.55;61.27;97307.50;5022187;28;20457;-73
2022/04/25 09:40:10;;;;;;;10.90;9.90;;;14.80;71.10;;;13.16;61.78;97310.22;5035733;28;20469;-73
2022/04/25 09:42:37;;;;;;;10.97;9.97;;;14.60;70.40;;;13.08;61.92;97286.22;5019434;28;20490;-72
2022/04/25 09:45:06;;;;;;;9.90;9.10;;;14.50;70.90;;;13.68;59.41;97306.31;5026108;28;20461;-71
2022/04/25 09:47:37;;;;;;;8.50;7.80;;;14.70;70.40;;;13.29;59.48;97298.19;5022471;28;20457;-76
2022/04/25 09:50:07;;;;;;;9.73;8.93;;;14.40;69.30;;;13.42;59.34;97308.69;5025824;28;20866;-74
2022/04/25 09:52:37;;;;;;;10.10;9.30;;;14.50;69.50;;;13.11;61.11;97308.25;5029404;28;20537;-75
2022/04/25 09:55:15;;;;;;;9.70;8.90;;;14.40;69.80;;;13.66;59.45;97310.34;5024624;28;20509;-75
2022/04/25 09:57:45;;;;;;;7.87;7.23;;;14.60;69.80;;;13.26;59.43;97307.63;5022445;28;20473;-73
2022/04/25 10:00:29;;;;;;;7.57;7.07;;;14.50;68.70;;;13.00;59.25;97301.88;5032996;28;20485;-82
2022/04/25 10:02:57;;;;;;;7.00;6.30;;;14.20;68.20;;;12.42;61.36;97312.88;5034579;28;20769;-78
2022/04/25 10:05:24;;;;;;;11.27;10.37;;;13.90;68.70;;;12.25;63.01;97317.47;5026667;28;20461;-80
2022/04/25 10:07:56;;;;;;;10.80;9.80;;;13.60;70.00;;;11.73;65.71;97325.41;5024527;28;20459;-76
2022/04/25 10:10:23;;;;;;;9.57;8.77;;;13.10;71.30;;;11.42;67.17;97315.81;5021792;28;20450;-84
2022/04/25 10:12:51;;;;;;;10.70;9.80;;;12.80;72.70;;;11.32;67.54;97317.25;5029085;28;20500;-81
2022/04/25 10:15:20;;;;;;;10.03;9.03;;;12.60;73.10;;;11.30;66.79;97319.38;5025554;28;21418;-81
2022/04/25 10:17:47;;;;;;;8.10;7.40;;;12.50;72.90;;;11.22;66.52;97319.72;5022783;28;20542;-70
2022/04/25 10:20:16;;;;;;;8.30;7.60;;;12.40;72.50;;;11.27;67.18;97327.13;5024956;28;20489;-72
2022/04/25 10:22:44;;;;;;;8.77;8.10;;;12.40;73.20;;;11.44;66.32;97311.81;5020086;28;20489;-71
2022/04/25 10:25:11;;;;;;;8.97;8.27;;;12.60;73.00;;;11.39;67.58;97316.28;5021144;28;20861;-76
2022/04/25 10:27:41;;;;;;;7.77;7.03;;;12.70;73.20;;;11.98;64.73;97318.00;5018744;28;21029;-77
2022/04/25 10:30:14;;;;;;;6.73;6.20;;;12.90;72.60;;;12.21;63.52;97319.00;5022024;28;20516;-73
2022/04/25 10:32:42;;;;;;;8.23;7.60;;;13.20;71.90;;;12.86;62.50;97324.97;5026350;28;20456;-71
2022/04/25 10:35:15;;;;;;;7.37;6.50;;;13.70;71.70;;;13.26;60.96;97323.91;5023255;28;20951;-74
2022/04/25 10:37:44;;;;;;;7.63;6.93;;;14.10;71.20;;;13.76;58.61;97321.34;5023858;28;20450;-73
2022/04/25 10:40:13;;;;;;;7.67;6.97;;;14.70;70.10;;;13.42;59.84;97322.25;5036388;28;20476;-72
2022/04/25 10:45:59;;;;;;;7.57;6.97;;;14.60;69.00;;;13.68;58.86;97324.50;5015608;28;20470;-71
2022/04/25 10:48:29;;;;;;;7.30;6.70;;;14.70;68.60;;;14.19;57.66;97331.59;5040775;28;20796;-70
2022/04/25 10:51:13;;;;;;;6.50;6.00;;;15.10;68.60;;;13.90;57.74;97334.53;5025001;28;20486;-72
2022/04/25 10:54:00;;;;;;;6.50;6.00;;;15.00;67.70;;;14.45;55.77;97319.88;5030266;28;20458;-72